Pacific Dawn — 2AGH7 — position and weather

sailwx.info

Track history (hours):
 
Tides and Currents Weather Stations Pressure Air Temp Water Temp Dewpoint Dewpoint Depression Visibility Wind Speed Wind Dir Waves Ship Positions

Pacific Dawn

Last reported at 2018-Feb-21 18:00 UTC. Time now 2018-Feb-22 15:03 UTC.
Position S 16°12' E 148°24'.

Length 245 m; draft 8.4 m.

Type: Passenger vessel. MMSI: 235059368.

Wind from 020 at 11 knots

Barometer 1003.8 mb
Air temperature 27.5 ° C
Visibility: greater than 10.8 NM
Dewpoint 24.7 ° C
Water temperature 31.3 ° C

Date/timePositionNaut miles runAvg speedWind from/ knotsBaromVisibWave heightAir tempDewpointWater temp
2018-Feb-21 18:00S 16°12' E 148°24'   020 / 111003.810.8 27.524.731.3
2018-Feb-18 06:00S 22°12' E 151°12'8512.2 160 / 131008.310.8 28.022.130.6
2018-Feb-17 23:00S 23°12' E 152°18'20413.6 180 / 121010.810.8 28.022.130.2
2018-Feb-17 08:00S 26°30' E 153°12'4422.9 130 / 221010.210.8 26.022.329.3
2018-Feb-17 06:03S 27°14' E 153°20'117.7
2018-Feb-17 06:00S 27°15' E 153°19'815.3
2018-Feb-17 05:30S 27°19' E 153°12'511.1
2018-Feb-17 05:00S 27°24' E 153°09'4 7.3
2018-Feb-17 04:29S 27°27' E 153°06'2 4.3
2018-Feb-17 04:00S 27°26' E 153°04'0 0.0
2018-Feb-17 03:30S 27°26' E 153°04'0 0.0
2018-Feb-17 03:00S 27°26' E 153°04'0 0.0
2018-Feb-17 02:30S 27°26' E 153°04'0 0.0
2018-Feb-17 01:54S 27°26' E 153°04'0 0.0
2018-Feb-17 01:30S 27°26' E 153°04'0 0.0
2018-Feb-17 01:00S 27°26' E 153°04'0 0.0
2018-Feb-17 00:30S 27°26' E 153°04'0 0.0
2018-Feb-16 23:36S 27°26' E 153°04'0 0.0
2018-Feb-16 23:24S 27°26' E 153°04'0 0.0
2018-Feb-16 22:42S 27°26' E 153°04'0 0.0
2018-Feb-16 22:30S 27°26' E 153°04'0 0.0
2018-Feb-16 21:18S 27°26' E 153°04'0 0.0
2018-Feb-16 21:00S 27°26' E 153°04'0 0.0
2018-Feb-16 20:30S 27°26' E 153°04'0 0.0
2018-Feb-16 20:00S 27°26' E 153°04'0 0.2
2018-Feb-16 19:30S 27°27' E 153°04'3 5.7
2018-Feb-16 19:00S 27°26' E 153°07'4 7.2
2018-Feb-16 18:29S 27°23' E 153°10'611.7
2018-Feb-16 18:00S 27°18' E 153°13'16913.0
2018-Feb-16 05:00S 24°30' E 153°30'   030 / 121004.010.8 28.523.529.6
2018-Feb-14 00:00S 23°12' E 152°18'11018.4 310 / 101011.910.8 28.024.429.6
2018-Feb-13 18:00S 24°36' E 153°36'15116.1 350 / 101006.410.8 26.023.129.4
2018-Feb-13 08:36S 27°06' E 153°19'815.0
2018-Feb-13 08:04S 27°14' E 153°20'216.7
2018-Feb-13 07:58S 27°15' E 153°19'715.0
2018-Feb-13 07:30S 27°19' E 153°12'510.7
2018-Feb-13 07:00S 27°24' E 153°09'3 6.9
2018-Feb-13 06:30S 27°26' E 153°07'2 4.5
2018-Feb-13 06:00S 27°27' E 153°04'0 0.2
2018-Feb-13 05:30S 27°26' E 153°04'0 0.0
2018-Feb-13 05:00S 27°26' E 153°04'0 0.0
2018-Feb-13 04:30S 27°26' E 153°04'0 0.0
2018-Feb-13 03:57S 27°26' E 153°04'0 0.0
2018-Feb-13 03:30S 27°26' E 153°04'0 0.0
2018-Feb-13 02:57S 27°26' E 153°04'0 0.0
2018-Feb-13 02:30S 27°26' E 153°04'0 0.0
2018-Feb-13 02:00S 27°26' E 153°04'0 0.0
2018-Feb-13 01:30S 27°26' E 153°04'0 0.0
2018-Feb-13 00:57S 27°26' E 153°04'0 0.0
2018-Feb-13 00:27S 27°26' E 153°04'0 0.0
2018-Feb-13 00:00S 27°26' E 153°04'0 0.0
2018-Feb-12 23:27S 27°26' E 153°04'0 0.0
2018-Feb-12 22:57S 27°26' E 153°04'0 0.0
2018-Feb-12 22:30S 27°26' E 153°04'0 0.0
2018-Feb-12 21:51S 27°26' E 153°04'0 0.0
2018-Feb-12 21:30S 27°26' E 153°04'0 0.0
2018-Feb-12 21:00S 27°26' E 153°04'0 0.0
2018-Feb-12 20:30S 27°26' E 153°04'0 0.0
2018-Feb-12 19:57S 27°26' E 153°04'0 0.1
2018-Feb-12 19:30S 27°27' E 153°04'2 4.7
2018-Feb-12 19:00S 27°26' E 153°07'4 7.2
2018-Feb-12 18:30S 27°24' E 153°09'510.6
2018-Feb-12 18:00S 27°19' E 153°12'816.4
2018-Feb-12 17:30S 27°14' E 153°20'816.2
2018-Feb-12 17:00S 27°06' E 153°19'1316.5
2018-Feb-12 16:12S 26°55' E 153°11'615.6
2018-Feb-12 15:51S 26°50' E 153°09'812.6
2018-Feb-12 15:13S 26°42' E 153°11'2 9.5
2018-Feb-12 15:00S 26°42' E 153°13'710.4
2018-Feb-12 14:22S 26°41' E 153°21'410.7
2018-Feb-12 13:58S 26°40' E 153°25'511.1
2018-Feb-12 13:30S 26°38' E 153°31'611.3
2018-Feb-12 13:00S 26°35' E 153°36'611.7
2018-Feb-12 12:29S 26°33' E 153°43'611.8
2018-Feb-12 12:00S 26°32' E 153°49'2 3.8
2018-Feb-12 11:29S 26°30' E 153°48'4 8.7
2018-Feb-12 11:00S 26°30' E 153°53'611.2
2018-Feb-12 10:30S 26°28' E 153°58'56 9.5
2018-Feb-12 04:37S 25°34' E 154°16'2 7.3
2018-Feb-12 04:22S 25°36' E 154°15'3 8.0
2018-Feb-12 04:00S 25°38' E 154°17'24 9.0
2018-Feb-12 01:19S 26°01' E 154°09'410.6
2018-Feb-12 00:56S 26°05' E 154°07'33 4.7
2018-Feb-11 18:00S 26°36' E 154°18'   300 / 41001.910.8 26.023.129.1
Track history (hours):
 
Tides and Currents Weather Stations Pressure Air Temp Water Temp Dewpoint Dewpoint Depression Visibility Wind Speed Wind Dir Waves Ship Positions

Pacific Dawn

Last reported at 2018-Feb-21 18:00 UTC. Time now 2018-Feb-22 15:03 UTC.
Position S 16°12' E 148°24'.

Length 245 m; draft 8.4 m.

Type: Passenger vessel. MMSI: 235059368.

Wind from 020 at 11 knots

Barometer 1003.8 mb
Air temperature 27.5 ° C
Visibility: greater than 10.8 NM
Dewpoint 24.7 ° C
Water temperature 31.3 ° C

Date/timePositionNaut miles runAvg speedWind from/ knotsBaromVisibWave heightAir tempDewpointWater temp
2018-Feb-21 18:00S 16°12' E 148°24'   020 / 111003.810.8 27.524.731.3
2018-Feb-18 06:00S 22°12' E 151°12'8512.2 160 / 131008.310.8 28.022.130.6
2018-Feb-17 23:00S 23°12' E 152°18'20413.6 180 / 121010.810.8 28.022.130.2
2018-Feb-17 08:00S 26°30' E 153°12'4422.9 130 / 221010.210.8 26.022.329.3
2018-Feb-17 06:03S 27°14' E 153°20'117.7
2018-Feb-17 06:00S 27°15' E 153°19'815.3
2018-Feb-17 05:30S 27°19' E 153°12'511.1
2018-Feb-17 05:00S 27°24' E 153°09'4 7.3
2018-Feb-17 04:29S 27°27' E 153°06'2 4.3
2018-Feb-17 04:00S 27°26' E 153°04'0 0.0
2018-Feb-17 03:30S 27°26' E 153°04'0 0.0
2018-Feb-17 03:00S 27°26' E 153°04'0 0.0
2018-Feb-17 02:30S 27°26' E 153°04'0 0.0
2018-Feb-17 01:54S 27°26' E 153°04'0 0.0
2018-Feb-17 01:30S 27°26' E 153°04'0 0.0
2018-Feb-17 01:00S 27°26' E 153°04'0 0.0
2018-Feb-17 00:30S 27°26' E 153°04'0 0.0
2018-Feb-16 23:36S 27°26' E 153°04'0 0.0
2018-Feb-16 23:24S 27°26' E 153°04'0 0.0
2018-Feb-16 22:42S 27°26' E 153°04'0 0.0
2018-Feb-16 22:30S 27°26' E 153°04'0 0.0
2018-Feb-16 21:18S 27°26' E 153°04'0 0.0
2018-Feb-16 21:00S 27°26' E 153°04'0 0.0
2018-Feb-16 20:30S 27°26' E 153°04'0 0.0
2018-Feb-16 20:00S 27°26' E 153°04'0 0.2
2018-Feb-16 19:30S 27°27' E 153°04'3 5.7
2018-Feb-16 19:00S 27°26' E 153°07'4 7.2
2018-Feb-16 18:29S 27°23' E 153°10'611.7
2018-Feb-16 18:00S 27°18' E 153°13'16913.0
2018-Feb-16 05:00S 24°30' E 153°30'   030 / 121004.010.8 28.523.529.6
2018-Feb-14 00:00S 23°12' E 152°18'11018.4 310 / 101011.910.8 28.024.429.6
2018-Feb-13 18:00S 24°36' E 153°36'15116.1 350 / 101006.410.8 26.023.129.4
2018-Feb-13 08:36S 27°06' E 153°19'815.0
2018-Feb-13 08:04S 27°14' E 153°20'216.7
2018-Feb-13 07:58S 27°15' E 153°19'715.0
2018-Feb-13 07:30S 27°19' E 153°12'510.7
2018-Feb-13 07:00S 27°24' E 153°09'3 6.9
2018-Feb-13 06:30S 27°26' E 153°07'2 4.5
2018-Feb-13 06:00S 27°27' E 153°04'0 0.2
2018-Feb-13 05:30S 27°26' E 153°04'0 0.0
2018-Feb-13 05:00S 27°26' E 153°04'0 0.0
2018-Feb-13 04:30S 27°26' E 153°04'0 0.0
2018-Feb-13 03:57S 27°26' E 153°04'0 0.0
2018-Feb-13 03:30S 27°26' E 153°04'0 0.0
2018-Feb-13 02:57S 27°26' E 153°04'0 0.0
2018-Feb-13 02:30S 27°26' E 153°04'0 0.0
2018-Feb-13 02:00S 27°26' E 153°04'0 0.0
2018-Feb-13 01:30S 27°26' E 153°04'0 0.0
2018-Feb-13 00:57S 27°26' E 153°04'0 0.0
2018-Feb-13 00:27S 27°26' E 153°04'0 0.0
2018-Feb-13 00:00S 27°26' E 153°04'0 0.0
2018-Feb-12 23:27S 27°26' E 153°04'0 0.0
2018-Feb-12 22:57S 27°26' E 153°04'0 0.0
2018-Feb-12 22:30S 27°26' E 153°04'0 0.0
2018-Feb-12 21:51S 27°26' E 153°04'0 0.0
2018-Feb-12 21:30S 27°26' E 153°04'0 0.0
2018-Feb-12 21:00S 27°26' E 153°04'0 0.0
2018-Feb-12 20:30S 27°26' E 153°04'0 0.0
2018-Feb-12 19:57S 27°26' E 153°04'0 0.1
2018-Feb-12 19:30S 27°27' E 153°04'2 4.7
2018-Feb-12 19:00S 27°26' E 153°07'4 7.2
2018-Feb-12 18:30S 27°24' E 153°09'510.6
2018-Feb-12 18:00S 27°19' E 153°12'816.4
2018-Feb-12 17:30S 27°14' E 153°20'816.2
2018-Feb-12 17:00S 27°06' E 153°19'1316.5
2018-Feb-12 16:12S 26°55' E 153°11'615.6
2018-Feb-12 15:51S 26°50' E 153°09'812.6
2018-Feb-12 15:13S 26°42' E 153°11'2 9.5
2018-Feb-12 15:00S 26°42' E 153°13'710.4
2018-Feb-12 14:22S 26°41' E 153°21'410.7
2018-Feb-12 13:58S 26°40' E 153°25'511.1
2018-Feb-12 13:30S 26°38' E 153°31'611.3
2018-Feb-12 13:00S 26°35' E 153°36'611.7
2018-Feb-12 12:29S 26°33' E 153°43'611.8
2018-Feb-12 12:00S 26°32' E 153°49'2 3.8
2018-Feb-12 11:29S 26°30' E 153°48'4 8.7
2018-Feb-12 11:00S 26°30' E 153°53'611.2
2018-Feb-12 10:30S 26°28' E 153°58'56 9.5
2018-Feb-12 04:37S 25°34' E 154°16'2 7.3
2018-Feb-12 04:22S 25°36' E 154°15'3 8.0
2018-Feb-12 04:00S 25°38' E 154°17'24 9.0
2018-Feb-12 01:19S 26°01' E 154°09'410.6
2018-Feb-12 00:56S 26°05' E 154°07'33 4.7
2018-Feb-11 18:00S 26°36' E 154°18'   300 / 41001.910.8 26.023.129.1

Dump ship's entire track history